createdAt,value
2019-04-05T00:01:33.594Z,98977.43
2019-04-05T00:04:35.569Z,98982.13
2019-04-05T00:07:37.640Z,98979.11
2019-04-05T00:10:40.763Z,98980.23
2019-04-05T00:13:42.706Z,98990.85
2019-04-05T00:16:44.659Z,98995.94
2019-04-05T00:19:47.987Z,98992.23
2019-04-05T00:22:49.994Z,98992.50
2019-04-05T00:25:51.956Z,98989.87
2019-04-05T00:28:53.954Z,98989.48
2019-04-05T00:31:55.920Z,98983.48
2019-04-05T00:34:57.910Z,98990.33
2019-04-05T00:37:59.995Z,98983.92
2019-04-05T00:41:02.538Z,98984.23
2019-04-05T00:44:04.753Z,98985.23
2019-04-05T00:47:06.765Z,98985.38
2019-04-05T00:50:09.784Z,98984.47
2019-04-05T00:53:11.722Z,98981.83
2019-04-05T00:56:13.635Z,98987.73
2019-04-05T00:59:15.587Z,98983.34
2019-04-05T01:02:17.515Z,98997.55
2019-04-05T01:05:19.496Z,99000.38
2019-04-05T01:08:21.473Z,99000.88
2019-04-05T01:11:23.468Z,98994.83
2019-04-05T01:14:26.664Z,99000.48
2019-04-05T01:17:28.993Z,99000.57
2019-04-05T01:20:34.533Z,98995.60
2019-04-05T01:23:36.762Z,99001.48
2019-04-05T01:26:40.465Z,99000.23
2019-04-05T01:29:43.755Z,99002.80
2019-04-05T01:32:46.510Z,99010.42
2019-04-05T01:35:48.445Z,99002.77
2019-04-05T01:38:50.555Z,98997.23
2019-04-05T01:41:52.690Z,99002.97
2019-04-05T01:44:54.807Z,99004.34
2019-04-05T01:47:56.756Z,99004.34
2019-04-05T01:50:58.710Z,99005.75
2019-04-05T01:54:00.753Z,99008.14
2019-04-05T01:57:02.759Z,99005.58
2019-04-05T02:00:08.288Z,99006.52
2019-04-05T02:03:10.309Z,99005.29
2019-04-05T02:06:12.215Z,99004.39
2019-04-05T02:09:14.344Z,98999.04
2019-04-05T02:12:16.512Z,98998.02
2019-04-05T02:15:24.549Z,99003.49
2019-04-05T02:18:26.454Z,98999.73
2019-04-05T02:21:28.434Z,99000.34
2019-04-05T02:24:31.488Z,99004.01
2019-04-05T02:27:33.399Z,99004.59
2019-04-05T02:30:35.315Z,99001.41
2019-04-05T02:33:38.406Z,99008.06
2019-04-05T02:36:40.407Z,99004.54
2019-04-05T02:39:42.462Z,98997.74
2019-04-05T02:42:48.080Z,99001.87
2019-04-05T02:45:51.021Z,99005.06
2019-04-05T02:48:53.224Z,99005.77
2019-04-05T02:51:57.654Z,99010.80
2019-04-05T02:54:59.800Z,99017.37
2019-04-05T02:58:03.658Z,99010.89
2019-04-05T03:01:05.644Z,99019.58
2019-04-05T03:04:08.427Z,99027.17
2019-04-05T03:07:12.768Z,99013.66
2019-04-05T03:10:53.754Z,99029.41
2019-04-05T03:13:59.914Z,99021.22
2019-04-05T03:17:03.793Z,99031.06
2019-04-05T03:20:06.442Z,99029.69
2019-04-05T03:23:09.510Z,99031.02
2019-04-05T03:26:15.084Z,99029.97
2019-04-05T03:29:17.147Z,99035.70
2019-04-05T03:32:19.236Z,99034.25
2019-04-05T03:35:21.264Z,99035.63
2019-04-05T03:38:23.785Z,99039.17
2019-04-05T03:41:26.019Z,99032.61
2019-04-05T03:44:28.074Z,99037.03
2019-04-05T03:47:30.436Z,99039.50
2019-04-05T03:50:32.570Z,99039.88
2019-04-05T03:53:34.755Z,99037.31
2019-04-05T03:56:38.197Z,99037.45
2019-04-05T03:59:40.550Z,99036.42
2019-04-05T04:02:42.628Z,99044.52
2019-04-05T04:05:44.728Z,99044.98
2019-04-05T04:08:46.629Z,99049.21
2019-04-05T04:11:48.789Z,99048.43
2019-04-05T04:14:50.702Z,99050.39
2019-04-05T04:17:53.433Z,99054.52
2019-04-05T04:20:59.032Z,99057.23
2019-04-05T04:24:01.564Z,99057.45
2019-04-05T04:27:03.995Z,99057.42
2019-04-05T04:30:06.871Z,99060.95
2019-04-05T04:33:09.093Z,99061.84
2019-04-05T04:36:13.058Z,99066.84
2019-04-05T04:39:15.444Z,99071.18
2019-04-05T04:42:18.034Z,99073.50
2019-04-05T04:45:20.478Z,99071.67
2019-04-05T04:48:23.082Z,99078.22
2019-04-05T04:51:25.619Z,99087.75
2019-04-05T04:54:27.595Z,99083.07
2019-04-05T04:57:30.342Z,99076.63
2019-04-05T05:00:33.385Z,99088.27
2019-04-05T05:03:35.527Z,99095.06
2019-04-05T05:06:37.624Z,99088.64
2019-04-05T05:09:39.892Z,99088.39
2019-04-05T05:12:42.429Z,99099.08
2019-04-05T05:15:44.353Z,99091.56
2019-04-05T05:18:46.681Z,99104.05
2019-04-05T05:21:49.184Z,99106.26
2019-04-05T05:24:52.375Z,99109.35
2019-04-05T05:27:54.511Z,99116.48
2019-04-05T05:30:58.465Z,99117.00
2019-04-05T05:34:00.515Z,99110.75
2019-04-05T05:37:02.512Z,99114.55
2019-04-05T05:40:06.746Z,99113.69
2019-04-05T05:43:08.835Z,99119.25
2019-04-05T05:46:10.787Z,99113.59
2019-04-05T05:49:12.751Z,99122.48
2019-04-05T05:52:15.200Z,99127.24
2019-04-05T05:55:17.208Z,99120.52
2019-04-05T05:58:19.862Z,99130.20
2019-04-05T06:01:21.816Z,99124.30
2019-04-05T06:04:23.754Z,99122.90
2019-04-05T06:07:25.769Z,99127.24
2019-04-05T06:10:27.711Z,99126.80
2019-04-05T06:13:29.799Z,99135.23
2019-04-05T06:16:31.710Z,99144.95
2019-04-05T06:19:33.663Z,99142.34
2019-04-05T06:22:36.581Z,99140.20
2019-04-05T06:25:38.542Z,99137.14
2019-04-05T06:28:40.478Z,99139.31
2019-04-05T06:31:42.641Z,99144.63
2019-04-05T06:34:44.532Z,99150.31
2019-04-05T06:37:46.580Z,99152.64
2019-04-05T06:40:48.505Z,99151.70
2019-04-05T06:43:50.716Z,99155.29
2019-04-05T06:46:52.603Z,99156.41
2019-04-05T06:49:54.639Z,99144.25
2019-04-05T06:52:56.576Z,99153.77
2019-04-05T06:55:59.965Z,99152.48
2019-04-05T06:59:03.309Z,99151.72
2019-04-05T07:02:05.439Z,99157.50
2019-04-05T07:05:08.550Z,99166.70
2019-04-05T07:08:11.659Z,99158.20
2019-04-05T07:11:13.594Z,99156.95
2019-04-05T07:14:15.687Z,99163.50
2019-04-05T07:17:17.692Z,99162.41
2019-04-05T07:20:19.632Z,99175.98
2019-04-05T07:23:21.640Z,99168.00
2019-04-05T07:26:23.722Z,99166.16
2019-04-05T07:29:25.630Z,99171.55
2019-04-05T07:32:27.606Z,99176.78
2019-04-05T07:35:33.688Z,99177.33
2019-04-05T07:38:34.407Z,99177.52
2019-04-05T07:41:36.418Z,99175.02
2019-04-05T07:44:38.547Z,99183.06
2019-04-05T07:47:40.553Z,99187.93
2019-04-05T07:50:42.511Z,99187.93
2019-04-05T07:53:44.579Z,99190.25
2019-04-05T07:56:46.551Z,99197.45
2019-04-05T07:59:48.594Z,99195.24
2019-04-05T08:02:50.573Z,99192.73
2019-04-05T08:05:52.652Z,99193.05
2019-04-05T08:08:58.229Z,99185.51
2019-04-05T08:12:00.298Z,99192.34
2019-04-05T08:15:04.755Z,99192.37
2019-04-05T08:18:06.648Z,99194.44
2019-04-05T08:21:08.698Z,99202.38
2019-04-05T08:24:10.632Z,99201.60
2019-04-05T08:27:13.804Z,99205.46
2019-04-05T08:30:15.816Z,99205.46
2019-04-05T08:33:17.989Z,99201.89
2019-04-05T08:36:19.952Z,99201.88
2019-04-05T08:39:21.929Z,99201.88
2019-04-05T08:42:23.888Z,99200.48
2019-04-05T08:45:25.991Z,99206.54
2019-04-05T08:48:27.915Z,99196.64
2019-04-05T08:51:29.991Z,99206.54
2019-04-05T08:54:35.048Z,99198.42
2019-04-05T08:57:35.897Z,99198.42
2019-04-05T09:00:37.858Z,99217.81
2019-04-05T09:03:39.846Z,99199.63
2019-04-05T09:06:42.916Z,99198.97
2019-04-05T09:09:44.884Z,99197.50
2019-04-05T09:12:46.822Z,99192.80
2019-04-05T09:15:48.884Z,99193.11
2019-04-05T09:18:50.779Z,99200.13
2019-04-05T09:21:52.750Z,99197.72
2019-04-05T09:24:54.695Z,99191.88
2019-04-05T09:27:56.713Z,99191.88
2019-04-05T09:30:59.916Z,99199.78
2019-04-05T09:34:01.853Z,99192.19
2019-04-05T09:37:03.895Z,99197.69
2019-04-05T09:40:06.600Z,99194.66
2019-04-05T09:43:08.537Z,99190.58
2019-04-05T09:46:10.603Z,99191.63
2019-04-05T09:49:12.576Z,99192.06
2019-04-05T09:52:15.015Z,99188.75
2019-04-05T09:55:17.010Z,99182.23
2019-04-05T09:58:19.001Z,99190.08
2019-04-05T10:01:20.916Z,99182.97
2019-04-05T10:04:22.924Z,99182.97
2019-04-05T10:07:24.911Z,99183.91
2019-04-05T10:10:27.328Z,99182.52
2019-04-05T10:13:29.288Z,99184.27
2019-04-05T10:16:31.351Z,99187.93
2019-04-05T10:19:33.309Z,99184.03
2019-04-05T10:22:35.310Z,99194.10
2019-04-05T10:25:37.245Z,99178.45
2019-04-05T10:28:39.185Z,99191.27
2019-04-05T10:31:41.199Z,99184.09
2019-04-05T10:34:43.265Z,99181.77
2019-04-05T10:37:45.182Z,99181.77
2019-04-05T10:40:47.205Z,99190.41
2019-04-05T10:43:50.245Z,99190.41
2019-04-05T10:46:52.409Z,99184.52
2019-04-05T10:50:02.807Z,99183.02
2019-04-05T10:52:58.331Z,99176.26
2019-04-05T10:56:00.339Z,99170.78
2019-04-05T10:59:02.525Z,99165.94
2019-04-05T11:02:04.525Z,99167.71
2019-04-05T11:05:06.799Z,99167.71
2019-04-05T11:08:08.763Z,99161.09
2019-04-05T11:11:10.743Z,99168.58
2019-04-05T11:14:14.015Z,99170.92
2019-04-05T11:17:16.684Z,99167.11
2019-04-05T11:20:21.752Z,99156.47
2019-04-05T11:23:24.242Z,99164.09
2019-04-05T11:26:26.230Z,99161.23
2019-04-05T11:29:28.190Z,99162.58
2019-04-05T11:32:30.205Z,99162.58
2019-04-05T11:35:32.134Z,99154.59
2019-04-05T11:38:34.760Z,99153.79
2019-04-05T11:41:36.916Z,99150.94
2019-04-05T11:44:41.099Z,99150.94
2019-04-05T11:47:43.346Z,99143.52
2019-04-05T11:50:45.350Z,99143.52
2019-04-05T11:53:47.307Z,99147.70
2019-04-05T11:56:49.325Z,99139.38
2019-04-05T11:59:51.252Z,99147.16
2019-04-05T12:02:58.200Z,99139.43
2019-04-05T12:06:00.233Z,99134.59
2019-04-05T12:09:04.272Z,99142.83
2019-04-05T12:12:06.393Z,99138.44
2019-04-05T12:15:08.460Z,99136.19
2019-04-05T12:18:10.571Z,99134.75
2019-04-05T12:21:12.543Z,99130.80
2019-04-05T12:24:14.505Z,99130.80
2019-04-05T12:27:16.437Z,99122.53
2019-04-05T12:30:23.442Z,99121.73
2019-04-05T12:33:25.467Z,99119.88
2019-04-05T12:36:27.432Z,99114.27
2019-04-05T12:39:29.656Z,99116.84
2019-04-05T12:42:31.579Z,99113.85
2019-04-05T12:45:33.602Z,99109.85
2019-04-05T12:48:35.688Z,99113.41
2019-04-05T12:51:37.807Z,99111.70
2019-04-05T12:54:39.775Z,99102.04
2019-04-05T12:57:41.808Z,99103.88
2019-04-05T13:00:43.786Z,99103.20
2019-04-05T13:03:45.745Z,99093.48
2019-04-05T13:06:47.675Z,99095.83
2019-04-05T13:09:53.854Z,99094.77
2019-04-05T13:12:56.789Z,99099.27
2019-04-05T13:15:59.384Z,99101.81
2019-04-05T13:19:01.732Z,99094.10
2019-04-05T13:22:03.639Z,99093.99
2019-04-05T13:25:06.514Z,99088.22
2019-04-05T13:28:13.511Z,99087.09
2019-04-05T13:31:12.606Z,99089.45
2019-04-05T13:34:14.606Z,99081.81
2019-04-05T13:37:20.457Z,99087.45
2019-04-05T13:40:21.033Z,99085.10
2019-04-05T13:43:23.010Z,99086.21
2019-04-05T13:46:26.252Z,99087.66
2019-04-05T13:49:28.537Z,99083.38
2019-04-05T13:52:30.566Z,99079.61
2019-04-05T13:55:32.734Z,99077.25
2019-04-05T13:58:34.719Z,99070.71
2019-04-05T14:01:36.766Z,99076.61
2019-04-05T14:04:38.850Z,99077.24
2019-04-05T14:07:40.827Z,99082.60
2019-04-05T14:10:42.852Z,99081.31
2019-04-05T14:13:44.815Z,99088.03
2019-04-05T14:16:46.813Z,99075.70
2019-04-05T14:19:49.572Z,99078.77
2019-04-05T14:22:53.143Z,99074.02
2019-04-05T14:25:59.379Z,99074.02
2019-04-05T14:29:03.445Z,99085.23
2019-04-05T14:32:19.700Z,99075.42
2019-04-05T14:35:08.669Z,99083.41
2019-04-05T14:38:11.842Z,99075.20
2019-04-05T14:41:14.936Z,99073.90
2019-04-05T14:44:16.930Z,99073.54
2019-04-05T14:47:19.964Z,99071.95
2019-04-05T14:50:22.404Z,99080.55
2019-04-05T14:53:24.352Z,99075.66
2019-04-05T14:56:26.816Z,99075.16
2019-04-05T14:59:32.668Z,99075.30
2019-04-05T15:02:34.123Z,99071.50
2019-04-05T15:05:36.126Z,99071.72
2019-04-05T15:08:38.039Z,99069.38
2019-04-05T15:11:40.042Z,99064.76
2019-04-05T15:14:42.061Z,99068.80
2019-04-05T15:17:48.302Z,99071.79
2019-04-05T15:20:48.103Z,99071.02
2019-04-05T15:23:50.083Z,99076.72
2019-04-05T15:26:52.219Z,99071.55
2019-04-05T15:29:55.650Z,99072.30
2019-04-05T15:33:00.047Z,99078.76
2019-04-05T15:36:03.076Z,99076.91
2019-04-05T15:39:07.732Z,99074.11
2019-04-05T15:42:11.409Z,99080.91
2019-04-05T15:45:16.107Z,99080.27
2019-04-05T15:48:17.548Z,99090.06
2019-04-05T15:51:19.676Z,99091.85
2019-04-05T15:54:21.608Z,99093.56
2019-04-05T15:57:23.587Z,99095.16
2019-04-05T16:00:33.725Z,99099.95
2019-04-05T16:03:37.054Z,99118.38
2019-04-05T16:06:39.347Z,99111.75
2019-04-05T16:09:41.328Z,99117.64
2019-04-05T16:12:43.319Z,99105.25
2019-04-05T16:15:45.265Z,99105.25
2019-04-05T16:18:47.275Z,99120.14
2019-04-05T16:21:49.334Z,99126.28
2019-04-05T16:24:51.332Z,99124.37
2019-04-05T16:27:53.302Z,99130.52
2019-04-05T16:30:55.231Z,99138.09
2019-04-05T16:33:57.252Z,99134.84
2019-04-05T16:36:59.249Z,99145.31
2019-04-05T16:40:01.369Z,99140.20
2019-04-05T16:43:05.037Z,99142.29
2019-04-05T16:46:06.999Z,99147.05
2019-04-05T16:49:08.928Z,99142.13
2019-04-05T16:52:11.017Z,99137.77
2019-04-05T16:55:13.012Z,99129.42
2019-04-05T16:58:15.136Z,99133.25
2019-04-05T17:01:27.020Z,99133.92
2019-04-05T17:04:21.043Z,99159.18
2019-04-05T17:07:23.049Z,99171.55
2019-04-05T17:10:24.996Z,99164.38
2019-04-05T17:13:26.975Z,99164.00
2019-04-05T17:16:28.941Z,99135.83
2019-04-05T17:19:31.292Z,99140.80
2019-04-05T17:22:33.305Z,99145.16
2019-04-05T17:25:35.264Z,99143.77
2019-04-05T17:28:37.196Z,99140.70
2019-04-05T17:31:39.156Z,99139.48
2019-04-05T17:34:42.442Z,99143.88
2019-04-05T17:37:44.388Z,99148.33
2019-04-05T17:40:46.406Z,99155.75
2019-04-05T17:43:50.290Z,99160.67
2019-04-05T17:46:52.322Z,99154.21
2019-04-05T17:49:54.276Z,99153.28
2019-04-05T17:52:56.437Z,99156.56
2019-04-05T17:55:59.109Z,99157.95
2019-04-05T17:59:02.408Z,99157.63
2019-04-05T18:02:04.465Z,99168.31
2019-04-05T18:05:07.318Z,99168.91
2019-04-05T18:08:09.743Z,99170.90
2019-04-05T18:11:12.923Z,99171.72
2019-04-05T18:14:14.855Z,99170.09
2019-04-05T18:17:16.762Z,99169.41
2019-04-05T18:20:18.897Z,99177.72
2019-04-05T18:23:25.388Z,99180.98
2019-04-05T18:26:26.210Z,99182.70
2019-04-05T18:29:28.222Z,99179.94
2019-04-05T18:32:31.371Z,99188.38
2019-04-05T18:35:33.533Z,99186.77
2019-04-05T18:38:35.617Z,99182.61
2019-04-05T18:41:37.581Z,99190.02
2019-04-05T18:44:40.244Z,99194.30
2019-04-05T18:47:42.190Z,99193.48
2019-04-05T18:50:48.570Z,99202.52
2019-04-05T18:53:52.954Z,99204.83
2019-04-05T18:56:57.877Z,99208.86
2019-04-05T18:59:59.834Z,99215.46
2019-04-05T19:03:02.080Z,99217.55
2019-04-05T19:06:04.575Z,99199.86
2019-04-05T19:09:11.589Z,99213.96
2019-04-05T19:12:14.681Z,99218.71
2019-04-05T19:15:18.039Z,99213.85
2019-04-05T19:18:21.599Z,99216.85
2019-04-05T19:21:23.730Z,99219.73
2019-04-05T19:24:25.809Z,99218.45
2019-04-05T19:27:30.550Z,99215.89
2019-04-05T19:48:59.764Z,99190.80
2019-04-05T19:52:03.605Z,99193.30
2019-04-05T19:55:06.981Z,99192.25
2019-04-05T19:58:09.229Z,99203.43
2019-04-05T20:01:13.019Z,99208.62
2019-04-05T20:04:15.003Z,99218.22
2019-04-05T20:07:16.982Z,99215.04
2019-04-05T20:10:21.030Z,99210.66
2019-04-05T20:13:23.329Z,99204.28
2019-04-05T20:16:28.619Z,99208.40
2019-04-05T20:19:30.934Z,99201.66
2019-04-05T20:22:32.909Z,99203.05
2019-04-05T20:25:34.922Z,99200.05
2019-04-05T20:28:36.972Z,99197.12
2019-04-05T20:31:38.925Z,99191.13
2019-04-05T20:34:40.957Z,99192.89
2019-04-05T20:37:42.979Z,99187.67
2019-04-05T20:40:44.937Z,99190.81
2019-04-05T20:43:46.928Z,99198.09
2019-04-05T20:46:48.840Z,99193.98
2019-04-05T20:49:50.783Z,99195.09
2019-04-05T20:52:52.795Z,99200.48
2019-04-05T20:55:54.998Z,99204.55
2019-04-05T20:58:56.945Z,99196.46
2019-04-05T21:01:58.921Z,99202.48
2019-04-05T21:05:00.914Z,99205.42
2019-04-05T21:08:02.859Z,99206.43
2019-04-05T21:11:04.870Z,99205.45
2019-04-05T21:14:06.795Z,99215.33
2019-04-05T21:17:08.801Z,99212.02
2019-04-05T21:20:11.322Z,99216.09
2019-04-05T21:23:14.448Z,99213.72
2019-04-05T21:26:17.606Z,99215.27
2019-04-05T21:29:19.575Z,99219.03
2019-04-05T21:32:21.570Z,99228.79
2019-04-05T21:35:23.508Z,99226.03
2019-04-05T21:38:25.433Z,99224.13
2019-04-05T21:41:27.371Z,99224.77
2019-04-05T21:44:29.371Z,99224.36
2019-04-05T21:47:31.266Z,99231.27
2019-04-05T21:50:33.228Z,99237.22
2019-04-05T21:53:35.145Z,99234.12
2019-04-05T21:56:37.312Z,99236.33
2019-04-05T21:59:39.309Z,99241.82
2019-04-05T22:02:41.448Z,99247.59
2019-04-05T22:05:43.399Z,99255.06
2019-04-05T22:08:45.348Z,99256.97
2019-04-05T22:11:47.319Z,99258.94
2019-04-05T22:14:49.384Z,99261.73
2019-04-05T22:17:51.323Z,99254.98
2019-04-05T22:20:53.837Z,99259.25
2019-04-05T22:23:55.875Z,99250.56
2019-04-05T22:26:57.925Z,99252.48
2019-04-05T22:30:01.384Z,99254.80
2019-04-05T22:33:03.376Z,99256.57
2019-04-05T22:36:05.315Z,99256.94
2019-04-05T22:39:07.294Z,99262.09
2019-04-05T22:42:09.799Z,99260.09
2019-04-05T22:45:11.716Z,99256.09
2019-04-05T22:48:13.755Z,99267.74
2019-04-05T22:51:15.703Z,99255.73
2019-04-05T22:54:18.023Z,99259.36
2019-04-05T22:57:20.401Z,99258.34
2019-04-05T23:00:22.575Z,99262.05
2019-04-05T23:03:24.605Z,99263.34
2019-04-05T23:06:26.625Z,99260.68
2019-04-05T23:09:28.722Z,99258.55
2019-04-05T23:12:30.761Z,99265.54
2019-04-05T23:15:32.711Z,99277.52
2019-04-05T23:18:34.703Z,99273.12
2019-04-05T23:21:36.580Z,99282.90
2019-04-05T23:24:38.501Z,99277.40
2019-04-05T23:27:40.533Z,99287.37
2019-04-05T23:30:43.425Z,99290.16
2019-04-05T23:33:45.375Z,99293.24
2019-04-05T23:36:47.341Z,99283.86
2019-04-05T23:39:49.345Z,99279.11
2019-04-05T23:42:51.277Z,99296.38
2019-04-05T23:45:53.225Z,99306.33
2019-04-05T23:48:55.233Z,99279.43
2019-04-05T23:51:57.244Z,99273.36
2019-04-05T23:54:59.303Z,99270.80
2019-04-05T23:58:01.351Z,99273.56
